Time;durP1;ratioP1;P1;durP2;ratioP2;P2;SDS_P1;SDS_P2;PMS_P1;PMS_P2;Temp;Humidity;BMP_temperature;BMP_pressure;BME280_temperature;BME280_humidity;BME280_pressure;Samples;Min_cycle;Max_cycle;Signal;HPM_P1;HPM_P2
2022/05/14 00:01:29;;;;;;;6.47;4.28;;;12.40;99.90;;;;;;5096628;28;20463;-55
2022/05/14 00:03:57;;;;;;;4.60;2.83;;;12.40;99.90;;;;;;5096784;28;20705;-54
2022/05/14 00:06:28;;;;;;;5.30;2.95;;;12.40;99.90;;;;;;5096566;28;20233;-54
2022/05/14 00:08:56;;;;;;;4.13;3.42;;;12.30;99.90;;;;;;5096053;28;20241;-55
2022/05/14 00:14:10;;;;;;;5.47;3.63;;;12.10;99.90;;;;;;5096375;28;20202;-57
2022/05/14 00:16:37;;;;;;;4.53;3.25;;;12.10;99.90;;;;;;5096492;28;20321;-58
2022/05/14 00:19:07;;;;;;;6.00;4.07;;;12.20;99.90;;;;;;5096094;28;20567;-56
2022/05/14 00:21:36;;;;;;;3.08;2.80;;;12.20;99.90;;;;;;5095853;28;20244;-55
2022/05/14 00:24:06;;;;;;;6.57;3.60;;;12.10;99.90;;;;;;5095591;28;20198;-53
2022/05/14 00:26:35;;;;;;;3.05;2.75;;;12.20;99.90;;;;;;5096383;28;20225;-57
2022/05/14 00:29:06;;;;;;;4.20;3.10;;;12.30;99.90;;;;;;5096256;28;20209;-52
2022/05/14 00:31:34;;;;;;;3.53;3.22;;;12.20;99.90;;;;;;5095575;28;20437;-54
2022/05/14 00:34:02;;;;;;;5.18;2.75;;;12.20;99.90;;;;;;5096182;28;20565;-56
2022/05/14 00:36:29;;;;;;;7.65;3.60;;;12.10;99.90;;;;;;5095673;28;20201;-54
2022/05/14 00:38:57;;;;;;;4.20;3.53;;;12.10;99.90;;;;;;5096129;28;20210;-54
2022/05/14 00:41:27;;;;;;;9.10;3.60;;;11.90;99.90;;;;;;5095710;28;20654;-51
2022/05/14 00:43:59;;;;;;;2.75;2.55;;;12.00;99.90;;;;;;5095398;28;20237;-52
2022/05/14 00:46:53;;;;;;;4.60;3.03;;;11.90;99.90;;;;;;5095704;28;20213;-54
2022/05/14 00:49:23;;;;;;;3.22;2.92;;;12.10;99.90;;;;;;5095985;28;20500;-52
2022/05/14 00:51:51;;;;;;;4.63;4.03;;;11.90;99.90;;;;;;5095406;28;20252;-57
2022/05/14 00:54:28;;;;;;;6.88;4.00;;;12.00;99.90;;;;;;5095712;28;20392;-53
2022/05/14 00:57:00;;;;;;;5.47;3.45;;;11.90;99.90;;;;;;5096134;28;20209;-51
2022/05/14 00:59:27;;;;;;;7.75;3.60;;;12.00;99.90;;;;;;5097725;28;20202;-56
2022/05/14 01:01:55;;;;;;;4.95;4.07;;;11.90;99.90;;;;;;5097800;28;20241;-55
2022/05/14 01:04:23;;;;;;;4.28;3.70;;;11.90;99.90;;;;;;5098103;28;20247;-52
2022/05/14 01:07:06;;;;;;;4.90;3.03;;;11.80;99.90;;;;;;5099141;28;20516;-53
2022/05/14 01:09:39;;;;;;;9.45;4.47;;;11.80;99.90;;;;;;5096180;28;20236;-57
2022/05/14 01:12:08;;;;;;;3.55;3.25;;;11.90;99.90;;;;;;5100783;28;20670;-57
2022/05/14 01:14:35;;;;;;;3.33;3.08;;;11.90;99.90;;;;;;5101472;28;20205;-59
2022/05/14 01:17:03;;;;;;;4.82;3.28;;;11.90;99.90;;;;;;5103257;28;20544;-57
2022/05/14 01:19:31;;;;;;;3.33;2.88;;;12.00;99.90;;;;;;5103907;28;20308;-59
2022/05/14 01:22:40;;;;;;;5.05;3.63;;;11.90;99.90;;;;;;5103446;28;20231;-52
2022/05/14 01:28:06;;;;;;;8.15;4.22;;;12.00;99.90;;;;;;5095491;28;20226;-56
2022/05/14 01:30:33;;;;;;;6.65;4.13;;;11.80;99.90;;;;;;5095404;28;20202;-55
2022/05/14 01:33:06;;;;;;;6.53;4.13;;;11.90;99.90;;;;;;5095226;28;20296;-55
2022/05/14 01:35:38;;;;;;;4.28;3.00;;;11.70;99.90;;;;;;5095625;28;20204;-54
2022/05/14 01:38:05;;;;;;;5.95;3.75;;;11.70;99.90;;;;;;5095316;28;20216;-52
2022/05/14 01:40:33;;;;;;;8.63;4.07;;;11.50;99.90;;;;;;5095378;28;20206;-55
2022/05/14 01:43:00;;;;;;;9.27;4.25;;;11.50;99.90;;;;;;5094482;28;20235;-54
2022/05/14 01:45:27;;;;;;;5.03;4.18;;;11.60;99.90;;;;;;5095379;28;20213;-54
2022/05/14 01:47:54;;;;;;;3.97;3.63;;;11.60;99.90;;;;;;5094926;28;20224;-55
2022/05/14 01:50:22;;;;;;;10.43;3.75;;;11.60;99.90;;;;;;5094907;28;20202;-57
2022/05/14 01:52:49;;;;;;;4.30;3.35;;;11.60;99.90;;;;;;5088534;28;20447;-54
2022/05/14 01:55:16;;;;;;;4.47;3.33;;;11.60;99.90;;;;;;5104432;28;20209;-54
2022/05/14 01:57:43;;;;;;;5.65;3.70;;;11.60;99.90;;;;;;5115353;28;20208;-51
2022/05/14 02:00:16;;;;;;;5.85;3.42;;;11.60;99.90;;;;;;5115182;28;20209;-55
2022/05/14 02:02:43;;;;;;;6.93;4.40;;;11.60;99.90;;;;;;5115199;28;20450;-54
2022/05/14 02:05:11;;;;;;;4.50;3.45;;;11.50;99.90;;;;;;5115100;28;20206;-54
2022/05/14 02:07:38;;;;;;;7.25;4.40;;;11.50;99.90;;;;;;5115344;28;20300;-57
2022/05/14 02:10:06;;;;;;;5.68;4.18;;;11.40;99.90;;;;;;5114921;28;20212;-55
2022/05/14 02:12:34;;;;;;;3.47;3.10;;;11.30;99.90;;;;;;5115732;28;20224;-54
2022/05/14 02:15:02;;;;;;;5.45;4.20;;;11.30;99.90;;;;;;5115523;28;20251;-55
2022/05/14 02:17:29;;;;;;;4.20;3.10;;;11.30;99.90;;;;;;5117424;28;20419;-55
2022/05/14 02:19:57;;;;;;;3.47;3.17;;;11.30;99.90;;;;;;5117856;28;20207;-57
2022/05/14 02:22:24;;;;;;;5.00;3.28;;;11.30;99.90;;;;;;5117504;28;20228;-54
2022/05/14 02:24:51;;;;;;;3.10;2.90;;;11.10;99.90;;;;;;5121319;28;20213;-55
2022/05/14 02:27:18;;;;;;;5.90;4.05;;;11.10;99.90;;;;;;5120777;28;20528;-58
2022/05/14 02:29:53;;;;;;;5.22;3.75;;;10.80;99.90;;;;;;5121274;28;20211;-57
2022/05/14 02:32:23;;;;;;;4.55;4.15;;;10.90;99.90;;;;;;5122257;28;20291;-56
2022/05/14 02:34:57;;;;;;;4.30;3.92;;;10.90;99.90;;;;;;5122259;28;20200;-56
2022/05/14 02:37:26;;;;;;;4.95;3.75;;;11.00;99.90;;;;;;5119140;28;20204;-55
2022/05/14 02:39:54;;;;;;;5.85;3.28;;;10.80;99.90;;;;;;5118326;28;20279;-57
2022/05/14 02:42:21;;;;;;;8.57;4.70;;;10.90;99.90;;;;;;5118801;28;20232;-51
2022/05/14 02:44:49;;;;;;;6.53;4.30;;;10.90;99.90;;;;;;5118310;28;20446;-57
2022/05/14 02:47:18;;;;;;;6.40;3.55;;;11.00;99.90;;;;;;5118569;28;20196;-51
2022/05/14 02:49:45;;;;;;;5.90;3.67;;;11.00;99.90;;;;;;5117920;28;20240;-56
2022/05/14 02:52:12;;;;;;;3.55;3.25;;;11.10;99.90;;;;;;5118338;28;20226;-55
2022/05/14 02:54:40;;;;;;;4.78;3.05;;;11.00;99.90;;;;;;5118247;28;20225;-54
2022/05/14 02:57:08;;;;;;;3.90;3.60;;;10.80;99.90;;;;;;5118089;28;20271;-55
2022/05/14 02:59:35;;;;;;;3.10;2.80;;;10.90;99.90;;;;;;5118643;28;20483;-53
2022/05/14 03:02:03;;;;;;;5.63;3.88;;;10.90;99.90;;;;;;5117708;28;20612;-57
2022/05/14 03:04:36;;;;;;;4.72;3.65;;;11.00;99.90;;;;;;5118126;28;20204;-55
2022/05/14 03:07:06;;;;;;;5.15;4.78;;;10.90;99.90;;;;;;5117506;28;20281;-53
2022/05/14 03:09:36;;;;;;;6.20;3.08;;;10.90;99.90;;;;;;5118314;28;20533;-54
2022/05/14 03:12:04;;;;;;;9.95;4.10;;;10.90;99.90;;;;;;5117417;28;20328;-55
2022/05/14 03:14:31;;;;;;;6.32;4.13;;;10.90;99.90;;;;;;5117913;28;20465;-56
2022/05/14 03:16:59;;;;;;;3.40;3.10;;;11.00;99.90;;;;;;5117766;28;20507;-54
2022/05/14 03:19:26;;;;;;;3.75;3.40;;;11.00;99.90;;;;;;5117509;28;20515;-55
2022/05/14 03:21:53;;;;;;;4.18;3.17;;;11.00;99.90;;;;;;5117581;28;20228;-56
2022/05/14 03:24:20;;;;;;;4.70;3.92;;;11.10;99.90;;;;;;5117014;28;20208;-56
2022/05/14 03:26:48;;;;;;;7.22;3.47;;;11.10;99.90;;;;;;5117738;28;20376;-55
2022/05/14 03:29:15;;;;;;;4.00;2.90;;;11.00;99.90;;;;;;5117390;28;20228;-52
2022/05/14 03:31:43;;;;;;;5.15;4.65;;;11.20;99.90;;;;;;5117542;28;20225;-56
2022/05/14 03:34:11;;;;;;;2.88;2.67;;;11.20;99.90;;;;;;5117569;28;20208;-53
2022/05/14 03:36:40;;;;;;;3.67;3.38;;;11.40;99.90;;;;;;5117521;28;20495;-52
2022/05/14 03:39:08;;;;;;;2.88;2.67;;;11.50;99.90;;;;;;5117850;28;20524;-58
2022/05/14 03:41:36;;;;;;;3.20;2.95;;;11.60;99.90;;;;;;5117365;28;20251;-55
2022/05/14 03:44:03;;;;;;;3.28;2.90;;;11.80;99.90;;;;;;5117243;28;20246;-54
2022/05/14 03:46:31;;;;;;;8.45;4.03;;;12.00;99.90;;;;;;5117130;28;20291;-54
2022/05/14 03:48:58;;;;;;;7.72;4.00;;;12.10;99.90;;;;;;5117232;27;20224;-58
2022/05/14 03:51:27;;;;;;;3.72;3.40;;;12.20;99.90;;;;;;5108483;28;20289;-57
2022/05/14 03:53:54;;;;;;;11.40;3.53;;;12.20;99.90;;;;;;5112549;28;20469;-55
2022/05/14 03:56:21;;;;;;;3.40;3.10;;;12.30;99.90;;;;;;5117377;28;20202;-54
2022/05/14 03:58:49;;;;;;;9.35;4.25;;;12.30;99.90;;;;;;5116426;28;20299;-54
2022/05/14 04:01:18;;;;;;;3.42;2.97;;;12.40;99.90;;;;;;5116666;28;20225;-55
2022/05/14 04:03:46;;;;;;;3.72;3.17;;;12.30;99.90;;;;;;5116475;28;20593;-56
2022/05/14 04:06:14;;;;;;;3.40;2.55;;;12.40;99.90;;;;;;5116781;27;20236;-54
2022/05/14 04:08:41;;;;;;;4.00;2.83;;;12.40;99.90;;;;;;5116429;28;20304;-56
2022/05/14 04:11:08;;;;;;;3.10;2.80;;;12.40;99.90;;;;;;5117001;28;20220;-56
2022/05/14 04:13:35;;;;;;;6.75;2.90;;;12.60;99.90;;;;;;5116707;28;20583;-54
2022/05/14 04:16:03;;;;;;;4.15;3.53;;;12.50;99.90;;;;;;5116974;28;20202;-56
2022/05/14 04:18:31;;;;;;;6.57;3.78;;;12.80;99.90;;;;;;5109093;28;20210;-58
2022/05/14 04:21:02;;;;;;;4.53;3.03;;;13.10;99.90;;;;;;5090642;28;20305;-56
2022/05/14 04:23:31;;;;;;;3.17;2.88;;;13.20;99.90;;;;;;5093465;28;20395;-56
2022/05/14 04:26:00;;;;;;;6.22;2.83;;;13.60;99.90;;;;;;5091020;28;20217;-55
2022/05/14 04:28:28;;;;;;;10.18;2.78;;;13.70;99.90;;;;;;5099510;28;20285;-56
2022/05/14 04:30:56;;;;;;;3.60;2.65;;;13.70;99.90;;;;;;5112594;28;20569;-57
2022/05/14 04:33:25;;;;;;;10.02;4.60;;;13.70;99.90;;;;;;5117304;28;20202;-57
2022/05/14 04:35:52;;;;;;;3.50;3.17;;;13.90;99.90;;;;;;5117124;28;20284;-56
2022/05/14 04:38:20;;;;;;;3.40;3.10;;;13.90;99.90;;;;;;5116121;28;20228;-56
2022/05/14 04:40:47;;;;;;;3.15;2.92;;;13.90;99.90;;;;;;5116082;28;20228;-57
2022/05/14 04:43:16;;;;;;;4.50;2.60;;;13.90;99.90;;;;;;5116226;28;20205;-56
2022/05/14 04:45:44;;;;;;;3.08;2.78;;;14.10;99.90;;;;;;5116060;28;20210;-56
2022/05/14 04:48:12;;;;;;;5.18;2.10;;;14.20;99.90;;;;;;5115798;28;20419;-55
2022/05/14 04:50:39;;;;;;;6.60;2.05;;;14.30;99.90;;;;;;5109558;28;20210;-56
2022/05/14 04:53:07;;;;;;;11.68;2.88;;;14.40;99.90;;;;;;5094545;28;20206;-57
2022/05/14 04:55:35;;;;;;;2.72;2.20;;;14.50;99.90;;;;;;5095471;28;20396;-53
2022/05/14 04:58:03;;;;;;;2.95;2.35;;;14.60;99.90;;;;;;5092324;28;20266;-57
2022/05/14 05:00:31;;;;;;;3.30;2.17;;;15.00;99.90;;;;;;5104820;28;20205;-57
2022/05/14 05:05:58;;;;;;;3.13;2.83;;;15.30;99.90;;;;;;5110419;28;20300;-56
2022/05/14 05:08:29;;;;;;;3.40;2.20;;;15.30;99.90;;;;;;5092758;28;20241;-55
2022/05/14 05:10:57;;;;;;;4.07;2.47;;;15.50;99.90;;;;;;5092258;28;20494;-52
2022/05/14 05:13:30;;;;;;;2.87;2.33;;;15.50;99.90;;;;;;5099164;28;20758;-57
2022/05/14 05:15:57;;;;;;;6.37;3.43;;;15.60;99.90;;;;;;5092351;28;20498;-58
2022/05/14 05:18:25;;;;;;;2.47;2.27;;;15.80;99.90;;;;;;5092639;28;20448;-57
2022/05/14 05:20:54;;;;;;;3.57;2.00;;;15.90;99.90;;;;;;5092136;28;20750;-58
2022/05/14 05:23:23;;;;;;;6.07;2.03;;;16.10;99.90;;;;;;5097432;28;20506;-58
2022/05/14 05:25:51;;;;;;;1.67;1.57;;;16.30;99.90;;;;;;5092924;28;20446;-54
2022/05/14 05:28:19;;;;;;;2.43;2.33;;;16.50;99.90;;;;;;5096943;28;20541;-57
2022/05/14 05:30:46;;;;;;;3.00;1.97;;;16.80;99.90;;;;;;5092656;28;20436;-59
2022/05/14 05:33:22;;;;;;;1.73;1.63;;;16.80;99.90;;;;;;5095131;28;20459;-58
2022/05/14 05:35:50;;;;;;;5.00;2.00;;;17.00;99.90;;;;;;5099016;28;20408;-57
2022/05/14 05:38:20;;;;;;;2.83;2.50;;;17.20;99.90;;;;;;5092020;28;20445;-55
2022/05/14 05:40:47;;;;;;;2.30;2.10;;;17.40;99.90;;;;;;5085895;28;20439;-56
2022/05/14 05:43:15;;;;;;;3.43;1.83;;;17.60;99.90;;;;;;5090208;28;20441;-59
2022/05/14 05:45:46;;;;;;;2.17;1.57;;;17.90;99.90;;;;;;5088157;28;20749;-59
2022/05/14 05:48:13;;;;;;;2.83;1.93;;;18.20;99.90;;;;;;5089326;28;20787;-55
2022/05/14 05:50:43;;;;;;;3.53;1.97;;;18.30;99.90;;;;;;5093896;28;20427;-55
2022/05/14 05:53:10;;;;;;;4.40;2.07;;;18.40;99.90;;;;;;5092865;28;20456;-53
2022/05/14 05:58:27;;;;;;;2.70;1.83;;;18.50;99.90;;;;;;5088528;28;20521;-55
2022/05/14 06:00:54;;;;;;;2.90;1.40;;;18.60;99.90;;;;;;5098030;28;20633;-55
2022/05/14 06:03:22;;;;;;;5.30;2.80;;;19.00;99.90;;;;;;5098307;28;20778;-55
2022/05/14 06:05:49;;;;;;;2.43;1.80;;;19.40;99.90;;;;;;5097873;28;20413;-57
2022/05/14 06:08:19;;;;;;;6.43;2.40;;;19.60;99.90;;;;;;5098093;28;20450;-57
2022/05/14 06:10:46;;;;;;;4.67;1.97;;;19.50;99.90;;;;;;5097184;28;20447;-53
2022/05/14 06:13:14;;;;;;;3.60;3.30;;;19.30;99.90;;;;;;5097714;28;20465;-55
2022/05/14 06:15:42;;;;;;;2.60;2.03;;;19.30;99.90;;;;;;5098080;28;20708;-56
2022/05/14 06:18:10;;;;;;;5.23;2.73;;;19.10;99.90;;;;;;5097398;28;20437;-55
2022/05/14 06:20:39;;;;;;;6.97;2.20;;;18.90;99.90;;;;;;5097634;28;20495;-56
2022/05/14 06:23:08;;;;;;;5.30;2.20;;;18.80;99.90;;;;;;5097478;28;20428;-53
2022/05/14 06:25:36;;;;;;;3.60;2.50;;;18.80;99.90;;;;;;5098034;28;20417;-60
2022/05/14 06:28:03;;;;;;;4.10;2.40;;;18.90;99.90;;;;;;5097114;28;20431;-55
2022/05/14 06:30:32;;;;;;;3.50;2.17;;;19.30;99.90;;;;;;5097110;28;20551;-57
2022/05/14 06:33:04;;;;;;;2.53;1.90;;;19.70;99.90;;;;;;5097090;28;20459;-58
2022/05/14 06:35:33;;;;;;;2.40;2.20;;;20.40;99.90;;;;;;5097613;28;20521;-56
2022/05/14 06:38:01;;;;;;;5.60;1.97;;;20.20;99.90;;;;;;5096967;28;20510;-55
2022/05/14 06:40:29;;;;;;;2.90;2.20;;;20.50;99.90;;;;;;5097276;28;20671;-52
2022/05/14 06:42:56;;;;;;;2.20;2.00;;;21.40;99.90;;;;;;5026175;28;20468;-55
2022/05/14 06:45:24;;;;;;;4.07;3.03;;;21.90;99.90;;;;;;5096979;28;20503;-57
2022/05/14 06:47:52;;;;;;;16.93;2.80;;;21.70;99.90;;;;;;5097052;28;20415;-56
2022/05/14 06:50:20;;;;;;;2.63;2.20;;;21.90;99.90;;;;;;5096758;28;20477;-55
2022/05/14 06:52:50;;;;;;;3.00;2.40;;;22.60;99.90;;;;;;5096948;28;20464;-53
2022/05/14 06:55:23;;;;;;;1.87;1.70;;;23.10;99.90;;;;;;5096810;28;20735;-54
2022/05/14 06:57:51;;;;;;;3.23;2.93;;;23.70;99.90;;;;;;5097076;28;20641;-54
2022/05/14 07:00:21;;;;;;;4.77;3.40;;;23.90;99.90;;;;;;5096885;28;20770;-56
2022/05/14 07:02:50;;;;;;;4.00;2.40;;;24.70;99.30;;;;;;5098001;28;20463;-56
2022/05/14 07:08:04;;;;;;;8.23;3.13;;;26.30;95.00;;;;;;5079863;28;20706;-55
2022/05/14 07:10:31;;;;;;;5.50;3.33;;;27.00;92.60;;;;;;5090362;28;20489;-53
2022/05/14 07:12:59;;;;;;;6.60;2.90;;;27.40;91.10;;;;;;5096085;28;20677;-56
2022/05/14 07:15:26;;;;;;;2.23;2.03;;;28.90;87.30;;;;;;5097256;28;20538;-56
2022/05/14 07:17:53;;;;;;;6.73;2.93;;;30.30;81.70;;;;;;5096220;28;20443;-55
2022/05/14 07:20:23;;;;;;;7.07;3.40;;;31.50;74.70;;;;;;5096090;28;20471;-58
2022/05/14 07:22:51;;;;;;;3.23;3.03;;;32.10;69.80;;;;;;5096126;28;21019;-57
2022/05/14 07:25:18;;;;;;;6.27;2.70;;;32.00;68.50;;;;;;5095764;28;20454;-55
2022/05/14 07:27:47;;;;;;;2.90;2.37;;;32.10;65.90;;;;;;5096242;28;20444;-56
2022/05/14 07:30:14;;;;;;;8.30;2.83;;;32.70;61.90;;;;;;5095612;28;20494;-56
2022/05/14 07:32:41;;;;;;;3.10;2.80;;;32.20;61.90;;;;;;5095795;28;20545;-53
2022/05/14 07:35:09;;;;;;;2.70;2.50;;;32.60;61.00;;;;;;5095978;28;20516;-57
2022/05/14 07:37:44;;;;;;;4.40;3.30;;;33.50;58.60;;;;;;5095811;28;20509;-54
2022/05/14 07:40:15;;;;;;;2.63;1.80;;;34.00;56.30;;;;;;5092876;28;20471;-54
2022/05/14 07:42:57;;;;;;;6.13;2.10;;;32.50;57.60;;;;;;5097068;28;20499;-58
2022/05/14 07:45:35;;;;;;;3.60;2.07;;;31.40;58.80;;;;;;5089532;28;20510;-56
2022/05/14 07:48:06;;;;;;;2.50;2.00;;;31.00;59.00;;;;;;5085397;28;20819;-57
2022/05/14 07:50:34;;;;;;;3.10;2.80;;;29.60;59.80;;;;;;5095679;28;20482;-56
2022/05/14 07:53:02;;;;;;;2.40;2.10;;;27.90;62.30;;;;;;5094936;28;20736;-56
2022/05/14 07:55:29;;;;;;;6.77;2.60;;;26.30;66.10;;;;;;5095988;28;20545;-54
2022/05/14 07:58:03;;;;;;;2.90;2.70;;;26.70;66.70;;;;;;5092314;28;20730;-53
2022/05/14 08:00:31;;;;;;;2.80;2.60;;;28.90;62.50;;;;;;5095458;28;20545;-54
2022/05/14 08:02:59;;;;;;;13.03;3.40;;;29.90;61.80;;;;;;5095304;28;20530;-58
2022/05/14 08:05:26;;;;;;;5.80;2.80;;;31.80;58.60;;;;;;5095390;28;20443;-55
2022/05/14 08:07:54;;;;;;;5.53;3.20;;;32.00;57.50;;;;;;5095419;28;20442;-53
2022/05/14 08:10:22;;;;;;;6.17;3.10;;;30.70;58.00;;;;;;5094373;28;20663;-57
2022/05/14 08:12:53;;;;;;;4.17;3.10;;;30.80;57.90;;;;;;5094877;28;20475;-55
2022/05/14 08:15:23;;;;;;;2.93;2.73;;;31.40;57.40;;;;;;5095247;28;20538;-58
2022/05/14 08:17:55;;;;;;;3.20;2.87;;;31.20;57.20;;;;;;5094585;28;20466;-59
2022/05/14 08:20:24;;;;;;;4.33;2.60;;;30.70;57.70;;;;;;5094492;28;20748;-58
2022/05/14 08:25:39;;;;;;;10.80;3.90;;;31.70;55.60;;;;;;5095397;28;20760;-56
2022/05/14 08:28:06;;;;;;;3.50;3.20;;;30.00;57.00;;;;;;5094354;28;20760;-58
2022/05/14 08:30:34;;;;;;;6.17;4.17;;;29.70;57.00;;;;;;5094964;28;20482;-56
2022/05/14 08:33:04;;;;;;;4.73;4.33;;;29.00;57.80;;;;;;5094512;28;20470;-57
2022/05/14 08:35:32;;;;;;;3.97;3.10;;;28.90;59.00;;;;;;5094560;28;20543;-57
2022/05/14 08:38:00;;;;;;;4.70;2.70;;;30.00;58.10;;;;;;5094523;28;20491;-57
2022/05/14 08:40:34;;;;;;;4.70;3.40;;;30.50;57.80;;;;;;5094584;28;20666;-53
2022/05/14 08:43:13;;;;;;;8.70;4.30;;;30.50;57.70;;;;;;5092847;28;20484;-59
2022/05/14 08:45:41;;;;;;;7.90;3.90;;;31.70;56.60;;;;;;5094652;28;20467;-53
2022/05/14 08:48:25;;;;;;;5.50;3.93;;;31.90;55.80;;;;;;5095015;28;20443;-55
2022/05/14 08:50:59;;;;;;;4.87;4.37;;;30.60;55.00;;;;;;5092333;28;20479;-56
2022/05/14 08:53:28;;;;;;;5.97;4.37;;;27.60;59.60;;;;;;5080966;28;20446;-58
2022/05/14 08:56:15;;;;;;;6.80;4.50;;;27.30;61.00;;;;;;5084636;28;20789;-55
2022/05/14 08:59:04;;;;;;;3.80;3.43;;;28.70;59.10;;;;;;5094817;28;20444;-54
2022/05/14 09:01:38;;;;;;;4.50;4.10;;;29.50;58.00;;;;;;5094355;28;20461;-56
2022/05/14 09:04:09;;;;;;;6.00;3.93;;;29.30;58.20;;;;;;5094221;28;20435;-58
2022/05/14 09:06:37;;;;;;;4.73;4.30;;;28.80;58.90;;;;;;5094818;28;20442;-54
2022/05/14 09:09:09;;;;;;;5.80;3.63;;;27.80;59.70;;;;;;5094310;28;20447;-54
2022/05/14 09:11:44;;;;;;;4.70;4.40;;;27.20;61.50;;;;;;5093701;28;20524;-55
2022/05/14 09:14:28;;;;;;;4.70;4.20;;;26.30;63.00;;;;;;5094520;28;20844;-54
2022/05/14 09:17:11;;;;;;;6.13;5.53;;;26.00;63.20;;;;;;5094656;28;20498;-56
2022/05/14 09:19:43;;;;;;;5.53;4.40;;;25.40;65.90;;;;;;5098244;28;20958;-56
2022/05/14 09:22:22;;;;;;;6.10;4.97;;;25.20;66.60;;;;;;5093789;28;20887;-53
2022/05/14 09:25:00;;;;;;;6.97;5.40;;;25.10;67.40;;;;;;5091995;28;20450;-52
2022/05/14 09:27:37;;;;;;;9.60;4.60;;;24.80;67.80;;;;;;5088527;28;20447;-54
2022/05/14 09:30:10;;;;;;;4.80;4.50;;;24.00;70.20;;;;;;5088105;28;20482;-54
2022/05/14 09:32:45;;;;;;;5.17;4.67;;;23.30;70.30;;;;;;5093514;28;20486;-54
2022/05/14 09:35:17;;;;;;;6.70;4.97;;;22.90;71.90;;;;;;5093529;28;20434;-57
2022/05/14 09:37:49;;;;;;;14.03;4.80;;;22.80;72.90;;;;;;5094042;28;20445;-55
2022/05/14 09:40:28;;;;;;;5.90;4.67;;;22.80;73.70;;;;;;5091982;28;20450;-56
2022/05/14 09:43:17;;;;;;;15.90;6.07;;;23.20;73.80;;;;;;5091276;28;20534;-54
2022/05/14 09:46:04;;;;;;;6.27;5.67;;;23.30;73.10;;;;;;5097061;28;20439;-54
2022/05/14 09:48:43;;;;;;;7.83;3.97;;;23.30;72.30;;;;;;5098770;28;20413;-53
2022/05/14 09:51:10;;;;;;;4.73;4.33;;;23.40;72.70;;;;;;5097822;28;20481;-55
2022/05/14 09:53:43;;;;;;;6.23;5.13;;;23.50;73.00;;;;;;5097976;28;20463;-53
2022/05/14 09:56:29;;;;;;;4.50;4.20;;;23.60;72.80;;;;;;5094336;28;20418;-53
2022/05/14 09:59:23;;;;;;;8.50;5.27;;;23.50;73.20;;;;;;5098243;28;20438;-54
2022/05/14 10:02:14;;;;;;;4.70;4.40;;;23.50;72.50;;;;;;5097745;28;20532;-57
2022/05/14 10:04:41;;;;;;;5.80;4.63;;;23.10;71.80;;;;;;5098165;28;20430;-55
2022/05/14 10:07:22;;;;;;;4.20;3.90;;;22.90;73.70;;;;;;5097996;28;20454;-57
2022/05/14 10:09:58;;;;;;;8.80;4.57;;;22.50;74.80;;;;;;5097618;28;20482;-56
2022/05/14 10:12:35;;;;;;;6.03;5.43;;;22.20;77.60;;;;;;5089541;28;21121;-56
2022/05/14 10:15:06;;;;;;;14.03;5.03;;;21.80;78.20;;;;;;5097031;28;20442;-55
2022/05/14 10:17:55;;;;;;;5.00;4.50;;;21.50;79.20;;;;;;5097968;28;20443;-56
2022/05/14 10:20:51;;;;;;;4.60;4.20;;;21.80;79.20;;;;;;5097113;28;20615;-58
2022/05/14 10:26:49;;;;;;;3.97;3.67;;;23.30;75.80;;;;;;5097377;28;20439;-54
2022/05/14 10:29:30;;;;;;;5.17;3.37;;;23.20;75.10;;;;;;5096972;28;20513;-56
2022/05/14 10:32:11;;;;;;;6.90;5.77;;;22.40;75.90;;;;;;5093435;28;20526;-56
2022/05/14 10:34:51;;;;;;;4.03;3.73;;;22.30;76.80;;;;;;5097908;28;20473;-54
2022/05/14 10:37:29;;;;;;;5.00;4.50;;;22.30;77.40;;;;;;5096552;28;21041;-58
2022/05/14 10:40:02;;;;;;;9.03;3.93;;;22.40;77.00;;;;;;5092789;28;20522;-57
2022/05/14 10:42:53;;;;;;;4.50;4.10;;;22.60;77.20;;;;;;5090106;28;20462;-55
2022/05/14 10:45:32;;;;;;;8.80;4.83;;;22.80;76.80;;;;;;5096623;28;20480;-54
2022/05/14 10:48:14;;;;;;;4.80;4.40;;;22.70;76.50;;;;;;5092847;28;20517;-54
2022/05/14 10:50:41;;;;;;;14.70;5.20;;;22.70;77.90;;;;;;5098436;28;20489;-56
2022/05/14 10:53:09;;;;;;;5.53;5.10;;;22.40;77.90;;;;;;5097185;28;20522;-54
2022/05/14 10:55:53;;;;;;;6.17;4.50;;;22.40;78.50;;;;;;5095955;28;20518;-53
2022/05/14 10:58:39;;;;;;;4.50;4.00;;;22.20;78.80;;;;;;5097328;28;20449;-54
2022/05/14 11:01:08;;;;;;;4.40;4.10;;;22.10;78.70;;;;;;5097005;28;20477;-55
2022/05/14 11:03:36;;;;;;;5.00;4.30;;;22.10;79.60;;;;;;5097308;28;20505;-57
2022/05/14 11:06:03;;;;;;;4.83;4.17;;;22.20;78.20;;;;;;5096815;28;20445;-55
2022/05/14 11:08:43;;;;;;;7.77;5.50;;;22.20;79.00;;;;;;5096713;28;20455;-57
2022/05/14 11:11:22;;;;;;;5.27;4.23;;;22.70;78.50;;;;;;5097192;28;20831;-56
2022/05/14 11:14:01;;;;;;;4.50;4.13;;;23.20;77.40;;;;;;5097085;28;20511;-57
2022/05/14 11:16:42;;;;;;;4.13;3.80;;;23.30;76.50;;;;;;5089647;28;20441;-55
2022/05/14 11:19:11;;;;;;;4.97;4.63;;;23.30;75.30;;;;;;5096707;28;20538;-56
2022/05/14 11:21:43;;;;;;;7.90;4.30;;;23.20;76.00;;;;;;5096735;28;20500;-55
2022/05/14 11:24:14;;;;;;;4.07;3.10;;;23.00;76.70;;;;;;5096140;28;20876;-57
2022/05/14 11:26:53;;;;;;;7.07;4.07;;;22.70;76.80;;;;;;5096907;28;20427;-54
2022/05/14 11:29:26;;;;;;;7.80;3.50;;;21.90;78.70;;;;;;5096490;28;20511;-51
2022/05/14 11:32:06;;;;;;;4.10;3.70;;;21.50;79.30;;;;;;5096710;28;20451;-54
2022/05/14 11:34:34;;;;;;;5.00;3.70;;;21.40;80.00;;;;;;5092094;28;20770;-57
2022/05/14 11:37:04;;;;;;;4.37;3.57;;;21.50;80.40;;;;;;5092947;28;20444;-54
2022/05/14 11:39:36;;;;;;;8.50;3.77;;;21.80;80.20;;;;;;5090883;28;20443;-57
2022/05/14 11:42:08;;;;;;;6.40;3.77;;;21.90;79.60;;;;;;5098056;28;20449;-55
2022/05/14 11:44:41;;;;;;;5.57;3.47;;;21.90;79.40;;;;;;5096725;28;20495;-57
2022/05/14 11:47:23;;;;;;;3.40;3.20;;;22.00;80.40;;;;;;5095863;28;20435;-56
2022/05/14 11:49:53;;;;;;;5.50;3.40;;;22.00;79.10;;;;;;5096763;28;20470;-55
2022/05/14 11:52:36;;;;;;;5.07;4.03;;;21.80;78.80;;;;;;5095815;28;20462;-54
2022/05/14 11:55:15;;;;;;;3.17;2.83;;;21.60;80.10;;;;;;5090875;28;20642;-54
2022/05/14 11:57:55;;;;;;;12.73;4.20;;;21.80;80.10;;;;;;5088847;28;20448;-55
2022/05/14 12:00:29;;;;;;;5.40;4.40;;;22.20;78.80;;;;;;5092556;28;20443;-56
2022/05/14 12:03:12;;;;;;;5.80;4.17;;;22.20;77.80;;;;;;5090039;28;20462;-56
2022/05/14 12:06:09;;;;;;;4.20;3.73;;;22.40;78.20;;;;;;5090664;28;20522;-52
2022/05/14 12:08:36;;;;;;;7.33;3.90;;;22.70;77.70;;;;;;5087410;28;20802;-53
2022/05/14 12:11:45;;;;;;;4.03;3.30;;;23.00;76.90;;;;;;5088562;28;20551;-55
2022/05/14 12:14:18;;;;;;;6.57;4.67;;;22.80;77.00;;;;;;5090062;28;20431;-54
2022/05/14 12:16:55;;;;;;;3.60;3.30;;;22.50;78.70;;;;;;5094864;28;20435;-55
2022/05/14 12:19:34;;;;;;;3.80;3.50;;;22.20;79.40;;;;;;5095159;28;20431;-52
2022/05/14 12:22:06;;;;;;;4.40;3.50;;;22.10;78.50;;;;;;5094433;28;20836;-55
2022/05/14 12:24:37;;;;;;;6.50;3.30;;;22.30;78.70;;;;;;5095521;28;20691;-57
2022/05/14 12:27:23;;;;;;;3.77;3.23;;;22.80;78.80;;;;;;5094777;28;20489;-51
2022/05/14 12:30:04;;;;;;;5.43;3.80;;;23.00;76.30;;;;;;5094984;28;20476;-56
2022/05/14 12:35:32;;;;;;;3.87;3.47;;;22.70;78.00;;;;;;5095778;28;20442;-56
2022/05/14 12:38:02;;;;;;;3.57;3.20;;;22.60;77.50;;;;;;5093335;28;20466;-55
2022/05/14 12:40:35;;;;;;;8.33;4.90;;;22.40;78.00;;;;;;5093612;28;20434;-57
2022/05/14 12:43:05;;;;;;;7.10;3.30;;;22.30;77.80;;;;;;5093764;28;20521;-52
2022/05/14 12:45:40;;;;;;;14.00;3.87;;;22.20;78.30;;;;;;5095291;28;20458;-56
2022/05/14 12:48:10;;;;;;;3.40;3.10;;;22.40;78.10;;;;;;5094905;28;20431;-58
2022/05/14 12:50:41;;;;;;;6.67;3.60;;;22.90;77.50;;;;;;5103789;28;20497;-56
2022/05/14 12:53:12;;;;;;;7.33;4.07;;;22.80;77.50;;;;;;5098871;28;20435;-55
2022/05/14 12:55:43;;;;;;;6.00;4.80;;;22.70;77.40;;;;;;5101400;28;20512;-58
2022/05/14 12:58:12;;;;;;;3.53;3.23;;;22.70;76.30;;;;;;5102007;28;20473;-58
2022/05/14 13:00:43;;;;;;;3.83;3.47;;;22.80;77.50;;;;;;5095839;28;20763;-56
2022/05/14 13:03:31;;;;;;;4.23;3.17;;;23.00;76.70;;;;;;5094222;28;20447;-55
2022/05/14 13:06:06;;;;;;;4.03;3.70;;;22.70;76.90;;;;;;5090798;28;20743;-56
2022/05/14 13:08:34;;;;;;;4.73;2.90;;;22.50;77.30;;;;;;5087585;28;20815;-52
2022/05/14 13:11:04;;;;;;;3.80;3.40;;;22.70;77.10;;;;;;5094299;28;20986;-54
2022/05/14 13:13:42;;;;;;;4.47;3.70;;;23.00;77.20;;;;;;5094787;28;20478;-58
2022/05/14 13:16:23;;;;;;;8.80;3.83;;;23.20;75.90;;;;;;5094614;28;20443;-54
2022/05/14 13:18:56;;;;;;;4.73;3.60;;;23.30;75.00;;;;;;5086067;28;20480;-56
2022/05/14 13:21:27;;;;;;;3.23;2.90;;;23.00;75.10;;;;;;5092830;28;20460;-55
2022/05/14 13:24:19;;;;;;;6.07;2.80;;;22.80;75.60;;;;;;5092631;28;20452;-53
2022/05/14 13:26:47;;;;;;;4.90;3.73;;;22.80;75.60;;;;;;5101026;28;20569;-55
2022/05/14 13:29:24;;;;;;;2.60;2.40;;;23.10;75.60;;;;;;5095067;28;20413;-55
2022/05/14 13:32:05;;;;;;;8.00;3.50;;;23.40;74.30;;;;;;5093706;28;20843;-56